Time,TemperatureF,DewpointF,PressureIn,WindDirection,WindDirectionDegrees,WindSpeedMPH,WindSpeedGustMPH,Humidity,HourlyPrecipIn,Conditions,Clouds,dailyrainin,SoftwareType,DateUTC
2013-03-18 00:00:00,55.8,11.6,25.28,West,273,6.3,6.3,17,0.00,,---,0.00,VWS V14.00,2013-03-18 07:00:00,
2013-03-18 00:05:00,55.0,12.3,25.28,West,263,5.8,5.8,18,0.00,,---,0.00,VWS V14.00,2013-03-18 07:05:00,
2013-03-18 00:10:00,54.5,11.9,25.28,West,276,4.5,5.4,18,0.00,,---,0.00,VWS V14.00,2013-03-18 07:10:00,
2013-03-18 00:15:00,54.5,11.9,25.28,WNW,295,5.4,6.7,18,0.00,,---,0.00,VWS V14.00,2013-03-18 07:15:00,
2013-03-18 00:20:00,54.5,11.9,25.28,WNW,287,4.0,4.0,18,0.00,,---,0.00,VWS V14.00,2013-03-18 07:20:00,
2013-03-18 00:25:00,54.3,11.7,25.28,WNW,287,4.0,4.0,18,0.00,,---,0.00,VWS V14.00,2013-03-18 07:25:00,
2013-03-18 00:31:00,54.3,11.7,25.28,WNW,287,4.9,4.9,18,0.00,,---,0.00,VWS V14.00,2013-03-18 07:31:00,
2013-03-18 00:36:00,54.5,11.9,25.28,WNW,286,4.9,5.4,18,0.00,,---,0.00,VWS V14.00,2013-03-18 07:36:00,
2013-03-18 00:41:00,54.9,12.2,25.28,WNW,296,7.2,7.2,18,0.00,,---,0.00,VWS V14.00,2013-03-18 07:41:00,
2013-03-18 00:46:00,55.0,12.3,25.28,West,279,6.3,6.3,18,0.00,,---,0.00,VWS V14.00,2013-03-18 07:46:00,
2013-03-18 00:51:00,55.4,11.3,25.28,West,264,6.3,6.3,17,0.00,,---,0.00,VWS V14.00,2013-03-18 07:51:00,
2013-03-18 00:57:00,55.6,11.5,25.28,West,271,5.8,6.3,17,0.00,,---,0.00,VWS V14.00,2013-03-18 07:57:00,
2013-03-18 01:02:00,55.4,11.3,25.28,West,264,4.9,5.4,17,0.00,,---,0.00,VWS V14.00,2013-03-18 08:02:00,
2013-03-18 01:07:00,54.9,12.2,25.28,West,265,5.8,5.8,18,0.00,,---,0.00,VWS V14.00,2013-03-18 08:07:00,
2013-03-18 01:12:00,53.8,11.3,25.28,West,264,5.8,5.8,18,0.00,,---,0.00,VWS V14.00,2013-03-18 08:12:00,
2013-03-18 01:17:00,52.9,10.6,25.28,West,267,5.4,6.3,18,0.00,,---,0.00,VWS V14.00,2013-03-18 08:17:00,
2013-03-18 01:22:00,52.7,10.4,25.28,West,279,6.7,6.7,18,0.00,,---,0.00,VWS V14.00,2013-03-18 08:22:00,
2013-03-18 01:27:00,53.1,10.7,25.28,West,281,6.3,6.7,18,0.00,,---,0.00,VWS V14.00,2013-03-18 08:27:00,
2013-03-18 01:32:00,54.3,11.7,25.28,West,273,6.3,6.3,18,0.00,,---,0.00,VWS V14.00,2013-03-18 08:32:00,
2013-03-18 01:37:00,55.6,11.5,25.28,West,276,8.1,9.6,17,0.00,,---,0.00,VWS V14.00,2013-03-18 08:37:00,
2013-03-18 01:43:00,55.9,11.8,25.28,West,260,8.1,8.1,17,0.00,,---,0.00,VWS V14.00,2013-03-18 08:43:00,
2013-03-18 01:48:00,55.0,12.3,25.28,West,264,7.6,8.3,18,0.00,,---,0.00,VWS V14.00,2013-03-18 08:48:00,
2013-03-18 01:53:00,53.8,11.3,25.28,West,264,5.4,8.1,18,0.00,,---,0.00,VWS V14.00,2013-03-18 08:53:00,
2013-03-18 01:58:00,52.7,10.4,25.28,West,260,7.6,8.3,18,0.00,,---,0.00,VWS V14.00,2013-03-18 08:58:00,
2013-03-18 02:03:00,52.2,10.0,25.28,West,261,7.2,8.3,18,0.00,,---,0.00,VWS V14.00,2013-03-18 09:03:00,
2013-03-18 02:08:00,52.2,10.0,25.28,West,266,6.3,8.1,18,0.00,,---,0.00,VWS V14.00,2013-03-18 09:08:00,
2013-03-18 02:13:00,51.8,9.7,25.28,WSW,256,6.3,7.6,18,0.00,,---,0.00,VWS V14.00,2013-03-18 09:13:00,
2013-03-18 02:18:00,52.0,9.8,25.28,West,259,5.4,6.3,18,0.00,,---,0.00,VWS V14.00,2013-03-18 09:18:00,
2013-03-18 02:23:00,51.8,9.7,25.28,WSW,257,5.4,5.8,18,0.00,,---,0.00,VWS V14.00,2013-03-18 09:23:00,
2013-03-18 02:28:00,52.0,9.8,25.28,WSW,252,5.4,5.8,18,0.00,,---,0.00,VWS V14.00,2013-03-18 09:28:00,
2013-03-18 02:33:00,51.8,9.7,25.28,West,262,5.8,5.8,18,0.00,,---,0.00,VWS V14.00,2013-03-18 09:33:00,
2013-03-18 02:38:00,52.5,10.2,25.28,WSW,258,5.8,5.8,18,0.00,,---,0.00,VWS V14.00,2013-03-18 09:38:00,
2013-03-18 02:44:00,53.1,10.7,25.28,West,259,5.8,5.8,18,0.00,,---,0.00,VWS V14.00,2013-03-18 09:44:00,
2013-03-18 02:49:00,53.2,10.9,25.28,WSW,257,4.9,7.6,18,0.00,,---,0.00,VWS V14.00,2013-03-18 09:49:00,
2013-03-18 02:54:00,53.6,11.1,25.28,West,264,4.9,6.7,18,0.00,,---,0.00,VWS V14.00,2013-03-18 09:54:00,
2013-03-18 02:59:00,53.4,11.0,25.28,West,266,4.9,4.9,18,0.00,,---,0.00,VWS V14.00,2013-03-18 09:59:00,
2013-03-18 03:04:00,53.4,11.0,25.28,West,267,4.0,4.0,18,0.00,,---,0.00,VWS V14.00,2013-03-18 10:04:00,
2013-03-18 03:09:00,53.4,11.0,25.28,West,267,0.0,0.0,18,0.00,,---,0.00,VWS V14.00,2013-03-18 10:09:00,
2013-03-18 03:14:00,53.2,10.9,25.28,West,267,0.0,0.0,18,0.00,,---,0.00,VWS V14.00,2013-03-18 10:14:00,
2013-03-18 03:19:00,52.5,10.2,25.28,West,267,0.0,0.0,18,0.00,,---,0.00,VWS V14.00,2013-03-18 10:19:00,
2013-03-18 03:24:00,52.0,9.8,25.28,West,267,0.0,0.0,18,0.00,,---,0.00,VWS V14.00,2013-03-18 10:24:00,
2013-03-18 03:29:00,51.3,10.4,25.28,West,267,0.0,2.7,19,0.00,,---,0.00,VWS V14.00,2013-03-18 10:29:00,
2013-03-18 03:34:00,51.4,10.6,25.28,West,267,0.0,0.0,19,0.00,,---,0.00,VWS V14.00,2013-03-18 10:34:00,
2013-03-18 03:40:00,51.4,10.6,25.28,West,267,0.0,0.0,19,0.00,,---,0.00,VWS V14.00,2013-03-18 10:40:00,
2013-03-18 03:45:00,51.6,10.7,25.28,SW,218,2.7,3.1,19,0.00,,---,0.00,VWS V14.00,2013-03-18 10:45:00,
2013-03-18 03:50:00,51.4,10.6,25.28,SSW,205,3.1,4.0,19,0.00,,---,0.00,VWS V14.00,2013-03-18 10:50:00,
2013-03-18 03:55:00,51.1,10.3,25.28,South,188,2.7,4.0,19,0.00,,---,0.00,VWS V14.00,2013-03-18 10:55:00,
2013-03-18 04:00:00,50.9,10.1,25.28,South,172,5.8,5.8,19,0.00,,---,0.00,VWS V14.00,2013-03-18 11:00:00,
2013-03-18 04:05:00,51.3,10.4,25.28,South,181,4.9,5.8,19,0.00,,---,0.00,VWS V14.00,2013-03-18 11:05:00,
2013-03-18 04:10:00,52.0,9.8,25.28,South,176,3.6,5.4,18,0.00,,---,0.00,VWS V14.00,2013-03-18 11:10:00,
2013-03-18 04:15:00,52.3,10.1,25.28,South,178,4.9,4.9,18,0.00,,---,0.00,VWS V14.00,2013-03-18 11:15:00,
2013-03-18 04:20:00,52.5,10.2,25.28,South,178,4.0,5.4,18,0.00,,---,0.00,VWS V14.00,2013-03-18 11:20:00,
2013-03-18 04:25:00,52.9,10.6,25.28,South,181,4.9,5.4,18,0.00,,---,0.00,VWS V14.00,2013-03-18 11:25:00,
2013-03-18 04:30:00,53.2,10.9,25.28,South,186,3.6,3.6,18,0.00,,---,0.00,VWS V14.00,2013-03-18 11:30:00,
2013-03-18 04:35:00,53.2,10.9,25.28,SW,216,0.0,0.0,18,0.00,,---,0.00,VWS V14.00,2013-03-18 11:35:00,
2013-03-18 04:40:00,52.5,10.2,25.28,SSW,194,0.0,0.0,18,0.00,,---,0.00,VWS V14.00,2013-03-18 11:40:00,
2013-03-18 04:45:00,52.5,10.2,25.28,SW,227,0.0,0.0,18,0.00,,---,0.00,VWS V14.00,2013-03-18 11:45:00,
2013-03-18 04:51:00,52.0,9.8,25.28,SSW,201,0.0,0.0,18,0.00,,---,0.00,VWS V14.00,2013-03-18 11:51:00,
2013-03-18 04:56:00,51.8,9.7,25.28,SSW,193,4.0,4.9,18,0.00,,---,0.00,VWS V14.00,2013-03-18 11:56:00,
2013-03-18 05:02:00,51.8,9.7,25.28,SW,221,0.0,0.0,18,0.00,,---,0.00,VWS V14.00,2013-03-18 12:02:00,
2013-03-18 05:07:00,50.9,10.1,25.28,South,181,0.0,3.6,19,0.00,,---,0.00,VWS V14.00,2013-03-18 12:07:00,
2013-03-18 05:12:00,50.5,9.8,25.28,WSW,244,0.0,0.0,19,0.00,,---,0.00,VWS V14.00,2013-03-18 12:12:00,
2013-03-18 05:17:00,50.2,9.5,25.28,WSW,244,3.6,3.6,19,0.00,,---,0.00,VWS V14.00,2013-03-18 12:17:00,
2013-03-18 05:22:00,49.8,9.2,25.28,West,261,0.0,0.0,19,0.00,,---,0.00,VWS V14.00,2013-03-18 12:22:00,
2013-03-18 05:27:00,50.2,9.5,25.28,WSW,249,0.0,0.0,19,0.00,,---,0.00,VWS V14.00,2013-03-18 12:27:00,
2013-03-18 05:32:00,49.8,9.2,25.28,SW,226,0.0,0.0,19,0.00,,---,0.00,VWS V14.00,2013-03-18 12:32:00,
2013-03-18 05:37:00,49.6,9.1,25.28,SW,221,0.0,0.0,19,0.00,,---,0.00,VWS V14.00,2013-03-18 12:37:00,
2013-03-18 05:43:00,49.8,9.2,25.28,WSW,242,0.0,0.0,19,0.00,,---,0.00,VWS V14.00,2013-03-18 12:43:00,
2013-03-18 05:48:00,50.0,9.4,25.28,WSW,242,0.0,0.0,19,0.00,,---,0.00,VWS V14.00,2013-03-18 12:48:00,
2013-03-18 05:53:00,49.6,9.1,25.28,WSW,241,0.0,3.1,19,0.00,,---,0.00,VWS V14.00,2013-03-18 12:53:00,
2013-03-18 05:58:00,49.3,8.8,25.28,WSW,239,0.0,0.0,19,0.00,,---,0.00,VWS V14.00,2013-03-18 12:58:00,
2013-03-18 06:03:00,50.0,9.4,25.28,West,269,2.7,3.6,19,0.00,,---,0.00,VWS V14.00,2013-03-18 13:03:00,
2013-03-18 06:08:00,51.4,10.6,25.28,West,269,0.0,0.0,19,0.00,,---,0.00,VWS V14.00,2013-03-18 13:08:00,
2013-03-18 06:13:00,50.7,10.0,25.31,West,268,0.0,0.0,19,0.00,,---,0.00,VWS V14.00,2013-03-18 13:13:00,
2013-03-18 06:18:00,50.7,10.0,25.31,West,260,0.0,0.0,19,0.00,,---,0.00,VWS V14.00,2013-03-18 13:18:00,
2013-03-18 06:23:00,49.6,9.1,25.31,WSW,242,4.5,5.4,19,0.00,,---,0.00,VWS V14.00,2013-03-18 13:23:00,
2013-03-18 06:28:00,48.6,8.2,25.31,South,181,3.6,3.6,19,0.00,,---,0.00,VWS V14.00,2013-03-18 13:28:00,
2013-03-18 06:33:00,48.9,8.5,25.31,SSW,201,4.0,4.0,19,0.00,,---,0.00,VWS V14.00,2013-03-18 13:33:00,
2013-03-18 06:38:00,49.5,8.9,25.31,SW,234,4.0,4.0,19,0.00,,---,0.00,VWS V14.00,2013-03-18 13:38:00,
2013-03-18 06:44:00,49.8,9.2,25.31,WSW,251,6.3,6.3,19,0.00,,---,0.00,VWS V14.00,2013-03-18 13:44:00,
2013-03-18 06:49:00,50.0,9.4,25.31,WSW,245,2.7,2.7,19,0.00,,---,0.00,VWS V14.00,2013-03-18 13:49:00,
2013-03-18 06:54:00,50.9,10.1,25.31,WSW,246,0.0,0.0,19,0.00,,---,0.00,VWS V14.00,2013-03-18 13:54:00,
2013-03-18 06:59:00,51.3,10.4,25.31,WSW,246,0.0,0.0,19,0.00,,---,0.00,VWS V14.00,2013-03-18 13:59:00,
2013-03-18 07:04:00,51.6,10.7,25.31,WSW,246,0.0,0.0,19,0.00,,---,0.00,VWS V14.00,2013-03-18 14:04:00,
2013-03-18 07:09:00,52.2,10.0,25.31,WSW,246,0.0,0.0,18,0.00,,---,0.00,VWS V14.00,2013-03-18 14:09:00,
2013-03-18 07:14:00,52.9,10.6,25.34,WSW,246,0.0,0.0,18,0.00,,---,0.00,VWS V14.00,2013-03-18 14:14:00,
2013-03-18 07:19:00,53.4,11.0,25.34,North,5,0.0,0.0,18,0.00,,---,0.00,VWS V14.00,2013-03-18 14:19:00,
2013-03-18 07:24:00,54.0,11.4,25.34,North,6,0.0,0.0,18,0.00,,---,0.00,VWS V14.00,2013-03-18 14:24:00,
2013-03-18 07:29:00,54.1,11.6,25.34,East,94,0.0,0.0,18,0.00,,---,0.00,VWS V14.00,2013-03-18 14:29:00,
2013-03-18 07:34:00,54.1,11.6,25.34,East,92,0.0,0.0,18,0.00,,---,0.00,VWS V14.00,2013-03-18 14:34:00,
2013-03-18 07:39:00,54.7,12.0,25.34,East,92,0.0,0.0,18,0.00,,---,0.00,VWS V14.00,2013-03-18 14:39:00,
2013-03-18 07:45:00,55.4,11.3,25.34,East,92,0.0,0.0,17,0.00,,---,0.00,VWS V14.00,2013-03-18 14:45:00,
2013-03-18 07:50:00,56.7,12.4,25.34,East,92,0.0,0.0,17,0.00,,---,0.00,VWS V14.00,2013-03-18 14:50:00,
2013-03-18 07:55:00,57.4,12.9,25.34,East,92,0.0,0.0,17,0.00,,---,0.00,VWS V14.00,2013-03-18 14:55:00,
2013-03-18 08:00:00,57.2,12.8,25.34,East,92,0.0,0.0,17,0.00,,---,0.00,VWS V14.00,2013-03-18 15:00:00,
2013-03-18 08:05:00,56.7,12.4,25.34,East,92,0.0,0.0,17,0.00,,---,0.00,VWS V14.00,2013-03-18 15:05:00,
2013-03-18 08:10:00,56.3,12.1,25.34,East,92,0.0,0.0,17,0.00,,---,0.00,VWS V14.00,2013-03-18 15:10:00,
2013-03-18 08:15:00,56.3,12.1,25.34,East,92,0.0,0.0,17,0.00,,---,0.00,VWS V14.00,2013-03-18 15:15:00,
2013-03-18 08:20:00,56.7,12.4,25.34,East,92,0.0,0.0,17,0.00,,---,0.00,VWS V14.00,2013-03-18 15:20:00,
2013-03-18 08:25:00,56.8,12.5,25.34,East,92,0.0,0.0,17,0.00,,---,0.00,VWS V14.00,2013-03-18 15:25:00,
2013-03-18 08:30:00,57.6,13.1,25.34,East,92,0.0,0.0,17,0.00,,---,0.00,VWS V14.00,2013-03-18 15:30:00,
2013-03-18 08:35:00,58.3,13.7,25.34,East,92,0.0,0.0,17,0.00,,---,0.00,VWS V14.00,2013-03-18 15:35:00,
2013-03-18 08:40:00,59.0,14.3,25.34,East,92,0.0,0.0,17,0.00,,---,0.00,VWS V14.00,2013-03-18 15:40:00,
2013-03-18 08:45:00,59.9,17.6,25.34,East,92,0.0,0.0,19,0.00,,---,0.00,VWS V14.00,2013-03-18 15:45:00,
2013-03-18 08:50:00,60.8,18.3,25.34,ESE,119,0.0,0.0,19,0.00,,---,0.00,VWS V14.00,2013-03-18 15:50:00,
2013-03-18 08:55:00,61.5,18.9,25.34,ESE,107,0.0,0.0,19,0.00,,---,0.00,VWS V14.00,2013-03-18 15:55:00,
2013-03-18 09:00:00,62.1,19.3,25.34,ENE,69,2.7,3.1,19,0.00,,---,0.00,VWS V14.00,2013-03-18 16:00:00,
2013-03-18 09:05:00,62.1,19.3,25.34,ESE,109,3.6,3.6,19,0.00,,---,0.00,VWS V14.00,2013-03-18 16:05:00,
2013-03-18 09:10:00,61.9,19.2,25.34,East,82,4.9,5.8,19,0.00,,---,0.00,VWS V14.00,2013-03-18 16:10:00,
2013-03-18 09:15:00,61.9,19.2,25.34,East,81,0.0,0.0,19,0.00,,---,0.00,VWS V14.00,2013-03-18 16:15:00,
2013-03-18 09:20:00,62.4,19.6,25.34,ENE,72,0.0,4.9,19,0.00,,---,0.00,VWS V14.00,2013-03-18 16:20:00,
2013-03-18 09:25:00,62.2,19.5,25.34,East,80,3.6,4.9,19,0.00,,---,0.00,VWS V14.00,2013-03-18 16:25:00,
2013-03-18 09:30:00,61.9,19.2,25.34,ENE,72,3.6,4.9,19,0.00,,---,0.00,VWS V14.00,2013-03-18 16:30:00,
2013-03-18 09:35:00,62.6,18.5,25.34,NE,48,3.1,3.6,18,0.00,,---,0.00,VWS V14.00,2013-03-18 16:35:00,
2013-03-18 09:41:00,63.3,19.1,25.34,NE,39,7.6,7.6,18,0.00,,---,0.00,VWS V14.00,2013-03-18 16:41:00,
2013-03-18 09:46:00,63.9,19.6,25.34,NNE,31,3.6,5.4,18,0.00,,---,0.00,VWS V14.00,2013-03-18 16:46:00,
2013-03-18 09:51:00,64.6,20.1,25.34,NE,43,0.0,2.7,18,0.00,,---,0.00,VWS V14.00,2013-03-18 16:51:00,
2013-03-18 09:56:00,65.5,20.9,25.34,NE,42,3.1,3.6,18,0.00,,---,0.00,VWS V14.00,2013-03-18 16:56:00,
2013-03-18 10:01:00,66.2,20.1,25.34,NE,41,4.0,6.3,17,0.00,,---,0.00,VWS V14.00,2013-03-18 17:01:00,
2013-03-18 10:06:00,67.1,20.9,25.34,NE,39,4.0,4.0,17,0.00,,---,0.00,VWS V14.00,2013-03-18 17:06:00,
2013-03-18 10:11:00,67.6,21.3,25.34,West,271,5.4,5.8,17,0.00,,---,0.00,VWS V14.00,2013-03-18 17:11:00,
2013-03-18 10:16:00,67.6,21.3,25.34,North,8,4.0,6.7,17,0.00,,---,0.00,VWS V14.00,2013-03-18 17:16:00,
2013-03-18 10:21:00,67.6,21.3,25.34,NNW,334,7.6,8.3,17,0.00,,---,0.00,VWS V14.00,2013-03-18 17:21:00,
2013-03-18 10:26:00,67.8,21.5,25.34,NW,308,8.3,8.3,17,0.00,,---,0.00,VWS V14.00,2013-03-18 17:26:00,
2013-03-18 10:31:00,67.6,21.3,25.34,NW,322,7.6,7.6,17,0.00,,---,0.00,VWS V14.00,2013-03-18 17:31:00,
2013-03-18 10:37:00,67.8,21.5,25.34,WNW,293,6.3,11.0,17,0.00,,---,0.00,VWS V14.00,2013-03-18 17:37:00,
2013-03-18 10:42:00,68.0,21.6,25.34,NNW,332,12.8,12.8,17,0.00,,---,0.00,VWS V14.00,2013-03-18 17:42:00,
2013-03-18 10:47:00,68.9,22.3,25.34,NW,320,8.1,11.0,17,0.00,,---,0.00,VWS V14.00,2013-03-18 17:47:00,
2013-03-18 10:52:00,68.7,22.2,25.34,SW,227,5.4,9.6,17,0.00,,---,0.00,VWS V14.00,2013-03-18 17:52:00,
2013-03-18 10:57:00,69.1,22.5,25.34,WSW,242,8.7,13.6,17,0.00,,---,0.00,VWS V14.00,2013-03-18 17:57:00,
2013-03-18 11:02:00,69.1,22.5,25.34,WSW,239,11.0,15.0,17,0.00,,---,0.00,VWS V14.00,2013-03-18 18:02:00,
2013-03-18 11:07:00,69.3,22.6,25.34,WSW,250,8.3,8.3,17,0.00,,---,0.00,VWS V14.00,2013-03-18 18:07:00,
2013-03-18 11:12:00,69.4,22.8,25.34,WNW,299,6.3,6.3,17,0.00,,---,0.00,VWS V14.00,2013-03-18 18:12:00,
2013-03-18 11:17:00,69.6,22.9,25.34,West,277,11.9,11.9,17,0.00,,---,0.00,VWS V14.00,2013-03-18 18:17:00,
2013-03-18 11:22:00,70.0,23.2,25.34,WSW,252,10.1,12.8,17,0.00,,---,0.00,VWS V14.00,2013-03-18 18:22:00,
2013-03-18 11:27:00,70.2,23.4,25.34,West,270,10.5,11.4,17,0.00,,---,0.00,VWS V14.00,2013-03-18 18:27:00,
2013-03-18 11:32:00,69.8,23.1,25.34,West,260,10.5,10.5,17,0.00,,---,0.00,VWS V14.00,2013-03-18 18:32:00,
2013-03-18 11:37:00,70.2,23.4,25.34,West,278,8.1,8.3,17,0.00,,---,0.00,VWS V14.00,2013-03-18 18:37:00,
2013-03-18 11:42:00,70.3,23.5,25.34,West,268,10.1,11.0,17,0.00,,---,0.00,VWS V14.00,2013-03-18 18:42:00,
2013-03-18 11:47:00,70.3,23.5,25.34,West,263,11.0,11.0,17,0.00,,---,0.00,VWS V14.00,2013-03-18 18:47:00,
2013-03-18 11:52:00,70.3,23.5,25.34,West,271,8.3,12.8,17,0.00,,---,0.00,VWS V14.00,2013-03-18 18:52:00,
2013-03-18 11:57:00,70.5,23.6,25.34,West,281,8.3,10.1,17,0.00,,---,0.00,VWS V14.00,2013-03-18 18:57:00,
2013-03-18 12:02:00,70.5,23.6,25.34,NW,309,8.1,8.1,17,0.00,,---,0.00,VWS V14.00,2013-03-18 19:02:00,
2013-03-18 12:07:00,71.1,24.1,25.34,SW,222,10.1,10.1,17,0.00,,---,0.00,VWS V14.00,2013-03-18 19:07:00,
2013-03-18 12:12:00,71.1,24.1,25.34,West,263,12.8,13.2,17,0.00,,---,0.00,VWS V14.00,2013-03-18 19:12:00,
2013-03-18 12:17:00,70.9,23.9,25.34,SSW,194,6.3,8.1,17,0.00,,---,0.00,VWS V14.00,2013-03-18 19:17:00,
2013-03-18 12:23:00,71.1,24.1,25.34,West,270,10.1,11.4,17,0.00,,---,0.00,VWS V14.00,2013-03-18 19:23:00,
2013-03-18 12:28:00,71.2,24.2,25.31,NW,326,3.1,13.2,17,0.00,,---,0.00,VWS V14.00,2013-03-18 19:28:00,
2013-03-18 12:33:00,71.4,24.4,25.31,West,280,5.8,8.3,17,0.00,,---,0.00,VWS V14.00,2013-03-18 19:33:00,
2013-03-18 12:38:00,71.6,23.1,25.31,WNW,296,11.0,11.0,16,0.00,,---,0.00,VWS V14.00,2013-03-18 19:38:00,
2013-03-18 12:43:00,71.8,23.2,25.31,SW,236,6.3,7.6,16,0.00,,---,0.00,VWS V14.00,2013-03-18 19:43:00,
2013-03-18 12:48:00,72.3,23.6,25.31,WSW,237,13.2,13.2,16,0.00,,---,0.00,VWS V14.00,2013-03-18 19:48:00,
2013-03-18 12:53:00,72.5,23.8,25.31,WSW,244,13.2,13.2,16,0.00,,---,0.00,VWS V14.00,2013-03-18 19:53:00,
2013-03-18 12:58:00,72.1,23.5,25.31,WNW,286,12.8,13.2,16,0.00,,---,0.00,VWS V14.00,2013-03-18 19:58:00,
2013-03-18 13:03:00,72.0,23.4,25.31,WSW,246,6.3,6.3,16,0.00,,---,0.00,VWS V14.00,2013-03-18 20:03:00,
2013-03-18 13:08:00,72.1,23.5,25.31,WSW,249,6.3,6.3,16,0.00,,---,0.00,VWS V14.00,2013-03-18 20:08:00,
2013-03-18 13:13:00,72.7,23.9,25.31,SW,226,7.6,10.1,16,0.00,,---,0.00,VWS V14.00,2013-03-18 20:13:00,
2013-03-18 13:18:00,72.9,24.1,25.31,NW,306,5.8,5.8,16,0.00,,---,0.00,VWS V14.00,2013-03-18 20:18:00,
2013-03-18 13:23:00,72.5,23.8,25.31,West,259,15.0,15.0,16,0.00,,---,0.00,VWS V14.00,2013-03-18 20:23:00,
2013-03-18 13:29:00,72.9,24.1,25.31,West,277,13.2,13.2,16,0.00,,---,0.00,VWS V14.00,2013-03-18 20:29:00,
2013-03-18 13:34:00,73.4,24.5,25.31,West,268,7.6,11.9,16,0.00,,---,0.00,VWS V14.00,2013-03-18 20:34:00,
2013-03-18 13:39:00,73.6,24.7,25.31,West,262,8.7,8.7,16,0.00,,---,0.00,VWS V14.00,2013-03-18 20:39:00,
2013-03-18 13:44:00,73.8,24.8,25.28,WNW,285,6.3,10.5,16,0.00,,---,0.00,VWS V14.00,2013-03-18 20:44:00,
2013-03-18 13:49:00,73.6,24.7,25.28,West,275,18.3,18.3,16,0.00,,---,0.00,VWS V14.00,2013-03-18 20:49:00,
2013-03-18 13:54:00,73.0,24.2,25.28,West,281,13.2,13.2,16,0.00,,---,0.00,VWS V14.00,2013-03-18 20:54:00,
2013-03-18 13:59:00,73.2,24.4,25.28,WSW,252,8.3,8.3,16,0.00,,---,0.00,VWS V14.00,2013-03-18 20:59:00,
2013-03-18 14:04:00,73.2,24.4,25.28,West,281,11.0,15.0,16,0.00,,---,0.00,VWS V14.00,2013-03-18 21:04:00,
2013-03-18 14:09:00,73.4,24.5,25.28,West,274,13.2,13.2,16,0.00,,---,0.00,VWS V14.00,2013-03-18 21:09:00,
2013-03-18 14:14:00,73.4,24.5,25.28,SW,221,5.4,5.4,16,0.00,,---,0.00,VWS V14.00,2013-03-18 21:14:00,
2013-03-18 14:19:00,73.6,24.7,25.28,WSW,250,15.0,15.0,16,0.00,,---,0.00,VWS V14.00,2013-03-18 21:19:00,
2013-03-18 14:25:00,73.8,24.8,25.28,WSW,258,16.3,16.3,16,0.00,,---,0.00,VWS V14.00,2013-03-18 21:25:00,
2013-03-18 14:30:00,73.8,24.8,25.28,WSW,253,12.8,13.2,16,0.00,,---,0.00,VWS V14.00,2013-03-18 21:30:00,
2013-03-18 14:35:00,73.9,25.0,25.28,SW,233,7.6,12.8,16,0.00,,---,0.00,VWS V14.00,2013-03-18 21:35:00,
2013-03-18 14:40:00,73.9,25.0,25.28,SSW,206,4.0,8.1,16,0.00,,---,0.00,VWS V14.00,2013-03-18 21:40:00,
2013-03-18 14:45:00,73.8,24.8,25.28,West,276,12.8,12.8,16,0.00,,---,0.00,VWS V14.00,2013-03-18 21:45:00,
2013-03-18 14:50:00,73.6,24.7,25.28,SW,226,12.3,12.3,16,0.00,,---,0.00,VWS V14.00,2013-03-18 21:50:00,
2013-03-18 14:55:00,73.9,25.0,25.28,SW,236,9.6,10.5,16,0.00,,---,0.00,VWS V14.00,2013-03-18 21:55:00,
2013-03-18 15:00:00,73.9,25.0,25.25,SW,219,12.3,12.8,16,0.00,,---,0.00,VWS V14.00,2013-03-18 22:00:00,
2013-03-18 15:05:00,73.8,24.8,25.25,SSW,212,12.8,16.3,16,0.00,,---,0.00,VWS V14.00,2013-03-18 22:05:00,
2013-03-18 15:10:00,73.6,24.7,25.28,WSW,255,7.6,17.0,16,0.00,,---,0.00,VWS V14.00,2013-03-18 22:10:00,
2013-03-18 15:15:00,73.6,24.7,25.28,SW,234,8.1,12.8,16,0.00,,---,0.00,VWS V14.00,2013-03-18 22:15:00,
2013-03-18 15:21:00,73.8,24.8,25.28,WSW,248,10.5,13.2,16,0.00,,---,0.00,VWS V14.00,2013-03-18 22:21:00,
2013-03-18 15:26:00,73.8,24.8,25.28,WSW,247,6.3,7.6,16,0.00,,---,0.00,VWS V14.00,2013-03-18 22:26:00,
2013-03-18 15:31:00,73.8,24.8,25.28,SW,218,8.3,12.8,16,0.00,,---,0.00,VWS V14.00,2013-03-18 22:31:00,
2013-03-18 15:37:00,73.9,25.0,25.28,West,270,17.4,23.7,16,0.00,,---,0.00,VWS V14.00,2013-03-18 22:37:00,
2013-03-18 15:42:00,73.9,25.0,25.28,WNW,295,17.4,18.3,16,0.00,,---,0.00,VWS V14.00,2013-03-18 22:42:00,
2013-03-18 15:47:00,73.9,25.0,25.28,NW,305,9.6,12.3,16,0.00,,---,0.00,VWS V14.00,2013-03-18 22:47:00,
2013-03-18 15:52:00,73.8,24.8,25.28,West,260,12.3,12.3,16,0.00,,---,0.00,VWS V14.00,2013-03-18 22:52:00,
2013-03-18 15:57:00,73.6,24.7,25.28,WNW,293,6.3,7.6,16,0.00,,---,0.00,VWS V14.00,2013-03-18 22:57:00,
2013-03-18 16:02:00,73.6,24.7,25.28,WSW,249,8.7,8.7,16,0.00,,---,0.00,VWS V14.00,2013-03-18 23:02:00,
2013-03-18 16:07:00,73.6,24.7,25.28,NW,313,14.5,14.5,16,0.00,,---,0.00,VWS V14.00,2013-03-18 23:07:00,
2013-03-18 16:12:00,73.8,24.8,25.25,WNW,297,8.3,10.5,16,0.00,,---,0.00,VWS V14.00,2013-03-18 23:12:00,
2013-03-18 16:17:00,73.2,24.4,25.25,West,271,11.0,13.2,16,0.00,,---,0.00,VWS V14.00,2013-03-18 23:17:00,
2013-03-18 16:22:00,73.0,24.2,25.25,WSW,258,10.1,13.6,16,0.00,,---,0.00,VWS V14.00,2013-03-18 23:22:00,
2013-03-18 16:27:00,73.0,24.2,25.25,WSW,240,8.3,9.2,16,0.00,,---,0.00,VWS V14.00,2013-03-18 23:27:00,
2013-03-18 16:33:00,73.2,24.4,25.25,NW,321,8.3,8.3,16,0.00,,---,0.00,VWS V14.00,2013-03-18 23:33:00,
2013-03-18 16:38:00,73.0,24.2,25.25,West,278,10.1,15.0,16,0.00,,---,0.00,VWS V14.00,2013-03-18 23:38:00,
2013-03-18 16:43:00,72.9,24.1,25.25,West,262,12.3,12.8,16,0.00,,---,0.00,VWS V14.00,2013-03-18 23:43:00,
2013-03-18 16:48:00,72.7,23.9,25.25,West,261,13.2,14.1,16,0.00,,---,0.00,VWS V14.00,2013-03-18 23:48:00,
2013-03-18 16:53:00,72.5,23.8,25.25,WNW,285,11.9,12.8,16,0.00,,---,0.00,VWS V14.00,2013-03-18 23:53:00,
2013-03-18 16:58:00,72.3,23.6,25.28,WNW,294,17.9,17.9,16,0.00,,---,0.00,VWS V14.00,2013-03-18 23:58:00,
2013-03-18 17:03:00,72.0,23.4,25.28,WNW,295,17.0,17.0,16,0.00,,---,0.00,VWS V14.00,2013-03-19 00:03:00,
2013-03-18 17:08:00,71.8,23.2,25.28,NW,308,8.7,11.0,16,0.00,,---,0.00,VWS V14.00,2013-03-19 00:08:00,
2013-03-18 17:13:00,71.4,24.4,25.28,NW,317,12.3,19.7,17,0.00,,---,0.00,VWS V14.00,2013-03-19 00:13:00,
2013-03-18 17:18:00,71.2,24.2,25.28,WNW,296,10.1,10.1,17,0.00,,---,0.00,VWS V14.00,2013-03-19 00:18:00,
2013-03-18 17:24:00,71.2,24.2,25.28,NW,325,8.7,12.8,17,0.00,,---,0.00,VWS V14.00,2013-03-19 00:24:00,
2013-03-18 17:29:00,70.9,23.9,25.28,NNW,334,13.2,16.3,17,0.00,,---,0.00,VWS V14.00,2013-03-19 00:29:00,
2013-03-18 17:34:00,70.5,23.6,25.28,WNW,291,13.2,15.4,17,0.00,,---,0.00,VWS V14.00,2013-03-19 00:34:00,
2013-03-18 17:39:00,70.2,23.4,25.28,West,276,6.3,8.3,17,0.00,,---,0.00,VWS V14.00,2013-03-19 00:39:00,
2013-03-18 17:44:00,69.8,23.1,25.28,West,259,7.6,10.5,17,0.00,,---,0.00,VWS V14.00,2013-03-19 00:44:00,
2013-03-18 17:49:00,69.4,22.8,25.28,WNW,300,10.1,10.5,17,0.00,,---,0.00,VWS V14.00,2013-03-19 00:49:00,
2013-03-18 17:54:00,69.4,22.8,25.28,WNW,299,8.3,8.3,17,0.00,,---,0.00,VWS V14.00,2013-03-19 00:54:00,
2013-03-18 17:59:00,69.1,22.5,25.28,WSW,239,14.5,14.5,17,0.00,,---,0.00,VWS V14.00,2013-03-19 00:59:00,
2013-03-18 18:04:00,68.7,22.2,25.28,WNW,289,5.8,7.6,17,0.00,,---,0.00,VWS V14.00,2013-03-19 01:04:00,
2013-03-18 18:09:00,68.2,21.7,25.28,WNW,286,8.1,8.1,17,0.00,,---,0.00,VWS V14.00,2013-03-19 01:09:00,
2013-03-18 18:14:00,67.8,21.5,25.28,NW,311,5.8,6.3,17,0.00,,---,0.00,VWS V14.00,2013-03-19 01:14:00,
2013-03-18 18:19:00,67.3,21.0,25.28,WSW,257,15.4,15.4,17,0.00,,---,0.00,VWS V14.00,2013-03-19 01:19:00,
2013-03-18 18:24:00,67.1,20.9,25.28,WNW,298,8.1,10.1,17,0.00,,---,0.00,VWS V14.00,2013-03-19 01:24:00,
2013-03-18 18:29:00,67.1,20.9,25.28,WNW,282,7.6,10.1,17,0.00,,---,0.00,VWS V14.00,2013-03-19 01:29:00,
2013-03-18 18:35:00,66.9,20.7,25.28,West,280,4.0,4.0,17,0.00,,---,0.00,VWS V14.00,2013-03-19 01:35:00,
2013-03-18 18:40:00,65.7,21.0,25.28,WNW,288,5.4,5.8,18,0.00,,---,0.00,VWS V14.00,2013-03-19 01:40:00,
2013-03-18 18:45:00,64.9,20.4,25.28,West,278,7.6,7.6,18,0.00,,---,0.00,VWS V14.00,2013-03-19 01:45:00,
2013-03-18 18:50:00,64.9,20.4,25.28,West,277,6.3,8.1,18,0.00,,---,0.00,VWS V14.00,2013-03-19 01:50:00,
2013-03-18 18:55:00,64.8,20.3,25.28,West,272,6.3,6.3,18,0.00,,---,0.00,VWS V14.00,2013-03-19 01:55:00,
2013-03-18 19:00:00,63.9,19.6,25.28,West,259,4.9,4.9,18,0.00,,---,0.00,VWS V14.00,2013-03-19 02:00:00,
2013-03-18 19:05:00,62.6,18.5,25.28,WSW,258,5.4,5.4,18,0.00,,---,0.00,VWS V14.00,2013-03-19 02:05:00,
2013-03-18 19:10:00,62.1,19.3,25.31,WSW,255,5.8,6.3,19,0.00,,---,0.00,VWS V14.00,2013-03-19 02:10:00,
2013-03-18 19:16:00,61.7,19.0,25.31,WSW,248,5.8,5.8,19,0.00,,---,0.00,VWS V14.00,2013-03-19 02:16:00,
2013-03-18 19:21:00,61.3,18.8,25.31,WSW,252,5.4,5.4,19,0.00,,---,0.00,VWS V14.00,2013-03-19 02:21:00,
2013-03-18 19:26:00,61.3,18.8,25.31,WSW,254,6.3,7.6,19,0.00,,---,0.00,VWS V14.00,2013-03-19 02:26:00,
2013-03-18 19:32:00,61.0,14.5,25.31,WSW,254,4.0,5.8,16,0.00,,---,0.00,VWS V14.00,2013-03-19 02:32:00,
2013-03-18 19:37:00,61.0,14.5,25.31,WSW,250,5.4,6.3,16,0.00,,---,0.00,VWS V14.00,2013-03-19 02:37:00,
2013-03-18 19:42:00,60.3,15.3,25.31,WSW,250,5.8,5.8,17,0.00,,---,0.00,VWS V14.00,2013-03-19 02:42:00,
2013-03-18 19:47:00,59.7,14.9,25.31,WSW,253,6.3,6.3,17,0.00,,---,0.00,VWS V14.00,2013-03-19 02:47:00,
2013-03-18 19:52:00,59.2,14.4,25.31,WSW,253,5.8,5.8,17,0.00,,---,0.00,VWS V14.00,2013-03-19 02:52:00,
2013-03-18 19:57:00,58.6,14.0,25.31,WSW,256,5.4,5.4,17,0.00,,---,0.00,VWS V14.00,2013-03-19 02:57:00,
2013-03-18 20:02:00,58.3,13.7,25.31,WSW,255,5.8,6.3,17,0.00,,---,0.00,VWS V14.00,2013-03-19 03:02:00,
2013-03-18 20:07:00,58.3,13.7,25.31,WSW,258,5.4,5.8,17,0.00,,---,0.00,VWS V14.00,2013-03-19 03:07:00,
2013-03-18 20:12:00,57.7,13.2,25.31,West,261,5.4,5.4,17,0.00,,---,0.00,VWS V14.00,2013-03-19 03:12:00,
2013-03-18 20:18:00,57.6,13.1,25.31,WSW,256,5.4,6.3,17,0.00,,---,0.00,VWS V14.00,2013-03-19 03:18:00,
2013-03-18 20:23:00,57.4,12.9,25.31,WSW,256,5.4,5.8,17,0.00,,---,0.00,VWS V14.00,2013-03-19 03:23:00,
2013-03-18 20:28:00,57.0,12.7,25.31,WSW,257,5.4,5.4,17,0.00,,---,0.00,VWS V14.00,2013-03-19 03:28:00,
2013-03-18 20:33:00,56.8,12.5,25.31,West,259,4.9,6.3,17,0.00,,---,0.00,VWS V14.00,2013-03-19 03:33:00,
2013-03-18 20:38:00,57.0,12.7,25.31,WSW,258,4.9,5.4,17,0.00,,---,0.00,VWS V14.00,2013-03-19 03:38:00,
2013-03-18 20:43:00,56.8,12.5,25.31,WSW,258,6.3,6.3,17,0.00,,---,0.00,VWS V14.00,2013-03-19 03:43:00,
2013-03-18 20:48:00,56.7,12.4,25.31,WSW,254,4.0,5.4,17,0.00,,---,0.00,VWS V14.00,2013-03-19 03:48:00,
2013-03-18 20:53:00,56.3,12.1,25.31,WSW,254,4.5,4.5,17,0.00,,---,0.00,VWS V14.00,2013-03-19 03:53:00,
2013-03-18 20:58:00,56.1,11.9,25.31,WSW,253,5.4,5.4,17,0.00,,---,0.00,VWS V14.00,2013-03-19 03:58:00,
2013-03-18 21:00:00,55.9,11.8,25.31,WSW,253,6.3,6.3,17,0.00,,---,0.00,VWS V14.00,2013-03-19 04:00:00,
2013-03-18 21:01:00,55.9,11.8,25.31,WSW,252,5.8,6.3,17,0.00,,---,0.00,VWS V14.00,2013-03-19 04:01:00,
2013-03-18 21:03:00,55.9,11.8,25.31,WSW,252,5.4,6.3,17,0.00,,---,0.00,VWS V14.00,2013-03-19 04:03:00,
2013-03-18 21:04:00,55.9,11.8,25.31,WSW,251,5.4,5.4,17,0.00,,---,0.00,VWS V14.00,2013-03-19 04:04:00,
2013-03-18 21:10:00,55.8,11.6,25.31,WSW,251,4.5,4.9,17,0.00,,---,0.00,VWS V14.00,2013-03-19 04:10:00,
2013-03-18 21:15:00,55.9,11.8,25.31,WSW,251,5.8,5.8,17,0.00,,---,0.00,VWS V14.00,2013-03-19 04:15:00,
2013-03-18 21:20:00,55.8,11.6,25.31,WSW,256,4.9,4.9,17,0.00,,---,0.00,VWS V14.00,2013-03-19 04:20:00,
2013-03-18 21:25:00,55.9,11.8,25.31,West,278,7.2,7.2,17,0.00,,---,0.00,VWS V14.00,2013-03-19 04:25:00,
2013-03-18 21:30:00,57.0,12.7,25.31,WNW,287,6.3,6.3,17,0.00,,---,0.00,VWS V14.00,2013-03-19 04:30:00,
2013-03-18 21:35:00,57.4,12.9,25.31,West,275,4.9,5.4,17,0.00,,---,0.00,VWS V14.00,2013-03-19 04:35:00,
2013-03-18 21:40:00,57.0,12.7,25.34,West,259,5.4,6.3,17,0.00,,---,0.00,VWS V14.00,2013-03-19 04:40:00,
2013-03-18 21:45:00,56.8,12.5,25.34,WSW,254,5.8,6.3,17,0.00,,---,0.00,VWS V14.00,2013-03-19 04:45:00,
2013-03-18 21:50:00,56.7,12.4,25.34,West,260,5.8,5.8,17,0.00,,---,0.00,VWS V14.00,2013-03-19 04:50:00,
2013-03-18 21:55:00,56.7,12.4,25.34,West,265,4.9,5.4,17,0.00,,---,0.00,VWS V14.00,2013-03-19 04:55:00,
2013-03-18 22:01:00,56.8,12.5,25.34,West,276,5.8,6.3,17,0.00,,---,0.00,VWS V14.00,2013-03-19 05:01:00,
2013-03-18 22:06:00,57.6,13.1,25.34,West,274,6.3,7.6,17,0.00,,---,0.00,VWS V14.00,2013-03-19 05:06:00,
2013-03-18 22:11:00,57.9,13.4,25.34,West,266,7.6,7.6,17,0.00,,---,0.00,VWS V14.00,2013-03-19 05:11:00,
2013-03-18 22:16:00,58.1,13.5,25.34,West,262,10.1,10.1,17,0.00,,---,0.00,VWS V14.00,2013-03-19 05:16:00,
2013-03-18 22:21:00,57.7,13.2,25.34,West,264,5.8,6.3,17,0.00,,---,0.00,VWS V14.00,2013-03-19 05:21:00,
2013-03-18 22:26:00,57.6,13.1,25.31,WNW,282,7.2,7.2,17,0.00,,---,0.00,VWS V14.00,2013-03-19 05:26:00,
2013-03-18 22:31:00,57.6,13.1,25.31,WSW,239,5.4,6.3,17,0.00,,---,0.00,VWS V14.00,2013-03-19 05:31:00,
2013-03-18 22:36:00,57.2,12.8,25.31,WSW,241,0.0,0.0,17,0.00,,---,0.00,VWS V14.00,2013-03-19 05:36:00,
2013-03-18 22:42:00,56.3,12.1,25.34,SW,229,0.0,0.0,17,0.00,,---,0.00,VWS V14.00,2013-03-19 05:42:00,
2013-03-18 22:47:00,55.6,11.5,25.34,SW,233,3.6,3.6,17,0.00,,---,0.00,VWS V14.00,2013-03-19 05:47:00,
2013-03-18 22:52:00,54.7,12.0,25.34,West,259,3.1,3.1,18,0.00,,---,0.00,VWS V14.00,2013-03-19 05:52:00,
2013-03-18 22:57:00,54.0,11.4,25.34,West,279,3.6,4.9,18,0.00,,---,0.00,VWS V14.00,2013-03-19 05:57:00,
2013-03-18 23:02:00,53.8,11.3,25.34,West,274,5.8,5.8,18,0.00,,---,0.00,VWS V14.00,2013-03-19 06:02:00,
2013-03-18 23:08:00,55.0,12.3,25.34,West,278,4.0,7.6,18,0.00,,---,0.00,VWS V14.00,2013-03-19 06:08:00,
2013-03-18 23:13:00,56.1,11.9,25.31,West,279,7.6,7.6,17,0.00,,---,0.00,VWS V14.00,2013-03-19 06:13:00,
2013-03-18 23:18:00,56.7,12.4,25.31,WNW,286,5.4,5.8,17,0.00,,---,0.00,VWS V14.00,2013-03-19 06:18:00,
2013-03-18 23:23:00,56.7,12.4,25.31,WNW,288,7.2,7.6,17,0.00,,---,0.00,VWS V14.00,2013-03-19 06:23:00,
2013-03-18 23:28:00,56.7,12.4,25.31,WNW,282,6.3,7.6,17,0.00,,---,0.00,VWS V14.00,2013-03-19 06:28:00,
2013-03-18 23:33:00,56.3,12.1,25.31,WNW,285,8.1,8.1,17,0.00,,---,0.00,VWS V14.00,2013-03-19 06:33:00,
2013-03-18 23:38:00,55.8,11.6,25.31,West,275,7.2,7.2,17,0.00,,---,0.00,VWS V14.00,2013-03-19 06:38:00,
2013-03-18 23:43:00,55.8,11.6,25.31,West,273,8.1,8.1,17,0.00,,---,0.00,VWS V14.00,2013-03-19 06:43:00,
2013-03-18 23:48:00,55.8,11.6,25.31,West,275,6.3,6.3,17,0.00,,---,0.00,VWS V14.00,2013-03-19 06:48:00,
2013-03-18 23:53:00,56.3,12.1,25.31,WNW,288,5.4,7.6,17,0.00,,---,0.00,VWS V14.00,2013-03-19 06:53:00,
2013-03-18 23:58:00,56.3,12.1,25.31,WNW,288,6.3,7.2,17,0.00,,---,0.00,VWS V14.00,2013-03-19 06:58:00,